Time;durP1;ratioP1;P1;durP2;ratioP2;P2;SDS_P1;SDS_P2;PMS_P1;PMS_P2;Temp;Humidity;BMP_temperature;BMP_pressure;BME280_temperature;BME280_humidity;BME280_pressure;Samples;Min_cycle;Max_cycle;Signal;HPM_P1;HPM_P2
2023/06/06 00:00:14;;;;;;;13.73;8.20;;;7.50;99.90;;;;;;5033605;28;20496;-27
2023/06/06 00:02:43;;;;;;;19.42;7.95;;;7.50;99.90;;;;;;5033558;28;20057;-27
2023/06/06 00:05:13;;;;;;;11.85;7.43;;;7.50;99.90;;;;;;5032457;28;20049;-27
2023/06/06 00:07:44;;;;;;;15.85;8.25;;;7.40;99.90;;;;;;5034074;28;20511;-28
2023/06/06 00:10:12;;;;;;;13.48;7.50;;;7.40;99.90;;;;;;5032901;28;20187;-28
2023/06/06 00:12:41;;;;;;;15.30;8.00;;;7.40;99.90;;;;;;5033504;28;20041;-27
2023/06/06 00:15:07;;;;;;;14.48;8.23;;;7.40;99.90;;;;;;5033475;28;20045;-27
2023/06/06 00:17:33;;;;;;;15.02;8.63;;;7.40;99.90;;;;;;5033534;28;20050;-27
2023/06/06 00:20:00;;;;;;;14.63;8.90;;;7.40;99.90;;;;;;5033458;28;20087;-28
2023/06/06 00:22:26;;;;;;;12.55;7.72;;;7.40;99.90;;;;;;5032452;28;20548;-27
2023/06/06 00:24:53;;;;;;;12.10;8.10;;;7.20;99.90;;;;;;5032231;28;20124;-27
2023/06/06 00:27:19;;;;;;;18.20;8.07;;;7.10;99.90;;;;;;5033655;28;20099;-27
2023/06/06 00:29:45;;;;;;;17.52;7.78;;;7.10;99.90;;;;;;5033350;28;20049;-27
2023/06/06 00:32:11;;;;;;;14.85;7.75;;;7.00;99.90;;;;;;5033347;28;20132;-28
2023/06/06 00:34:36;;;;;;;13.30;7.30;;;7.00;99.90;;;;;;5034153;28;20053;-27
2023/06/06 00:37:02;;;;;;;11.77;7.53;;;7.00;99.90;;;;;;5033326;28;20398;-28
2023/06/06 00:39:28;;;;;;;15.43;7.70;;;6.90;99.90;;;;;;5033261;28;20068;-27
2023/06/06 00:41:54;;;;;;;15.45;8.35;;;6.80;99.90;;;;;;5032061;28;20041;-27
2023/06/06 00:44:21;;;;;;;15.18;8.55;;;6.80;99.90;;;;;;5001961;28;20092;-27
2023/06/06 00:46:47;;;;;;;18.67;9.45;;;6.80;99.90;;;;;;5037148;28;20111;-27
2023/06/06 00:49:15;;;;;;;12.77;8.50;;;6.80;99.90;;;;;;5037002;28;20077;-27
2023/06/06 00:51:43;;;;;;;17.67;9.05;;;6.80;99.90;;;;;;5037004;28;20057;-27
2023/06/06 00:54:14;;;;;;;14.88;9.18;;;6.80;99.90;;;;;;5036271;28;20050;-27
2023/06/06 00:56:43;;;;;;;15.82;9.05;;;6.80;99.90;;;;;;5037721;28;20064;-28
2023/06/06 00:59:13;;;;;;;20.15;8.93;;;6.80;99.90;;;;;;5004089;28;20473;-27
2023/06/06 01:01:41;;;;;;;17.45;9.23;;;6.70;99.90;;;;;;5037107;28;20051;-28
2023/06/06 01:04:08;;;;;;;21.02;9.80;;;6.70;99.90;;;;;;5036677;28;20045;-28
2023/06/06 01:06:35;;;;;;;17.63;9.73;;;6.70;99.90;;;;;;5036713;28;20504;-27
2023/06/06 01:09:04;;;;;;;16.13;9.40;;;6.70;99.90;;;;;;5036736;28;20068;-28
2023/06/06 01:11:52;;;;;;;17.45;9.38;;;6.70;99.90;;;;;;5035436;28;20046;-27
2023/06/06 01:14:43;;;;;;;17.17;9.13;;;6.80;99.90;;;;;;5035427;28;20408;-27
2023/06/06 01:17:10;;;;;;;16.58;10.75;;;6.90;99.90;;;;;;5037203;28;20080;-27
2023/06/06 01:19:41;;;;;;;25.42;10.70;;;7.00;99.90;;;;;;5036865;28;20562;-27
2023/06/06 01:22:07;;;;;;;20.52;11.30;;;7.10;99.90;;;;;;5036794;28;20045;-27
2023/06/06 01:24:35;;;;;;;21.25;11.38;;;7.20;99.90;;;;;;5036330;28;20412;-28
2023/06/06 01:27:03;;;;;;;20.15;11.23;;;7.20;99.90;;;;;;5036684;28;20068;-27
2023/06/06 01:29:30;;;;;;;23.73;10.77;;;7.30;99.90;;;;;;5019711;28;20045;-27
2023/06/06 01:32:32;;;;;;;21.33;10.32;;;7.30;99.90;;;;;;5035340;28;20064;-27
2023/06/06 01:35:20;;;;;;;23.75;12.95;;;7.30;99.90;;;;;;5036262;28;20046;-29
2023/06/06 01:37:54;;;;;;;24.35;11.98;;;7.30;99.90;;;;;;5036985;28;20072;-27
2023/06/06 01:40:24;;;;;;;24.42;11.30;;;7.20;99.90;;;;;;5035183;28;20052;-27
2023/06/06 01:42:50;;;;;;;24.45;10.52;;;7.20;99.90;;;;;;5036090;28;20515;-27
2023/06/06 01:45:30;;;;;;;21.60;10.05;;;7.20;99.90;;;;;;5036480;28;20037;-27
2023/06/06 01:47:57;;;;;;;19.60;11.18;;;7.20;99.90;;;;;;5036011;28;20474;-27
2023/06/06 01:50:23;;;;;;;22.48;11.20;;;7.30;99.90;;;;;;5035890;28;20053;-27
2023/06/06 01:52:53;;;;;;;26.80;12.23;;;7.30;99.90;;;;;;5036159;28;20050;-27
2023/06/06 01:55:18;;;;;;;20.65;12.40;;;7.50;99.90;;;;;;5034492;28;20551;-28
2023/06/06 01:57:44;;;;;;;24.48;12.43;;;7.50;99.90;;;;;;5035081;28;20081;-27
2023/06/06 02:00:11;;;;;;;20.40;12.07;;;7.50;99.90;;;;;;5035724;28;20124;-27
2023/06/06 02:02:36;;;;;;;22.98;11.30;;;7.50;99.90;;;;;;5035682;28;20096;-27
2023/06/06 02:05:03;;;;;;;27.00;12.13;;;7.60;99.90;;;;;;5018881;28;20085;-27
2023/06/06 02:07:30;;;;;;;24.92;11.45;;;7.60;99.90;;;;;;5035620;28;20053;-27
2023/06/06 02:09:56;;;;;;;19.75;11.73;;;7.70;99.90;;;;;;5035894;28;20049;-27
2023/06/06 02:12:21;;;;;;;25.50;12.02;;;7.70;99.90;;;;;;5035575;28;20488;-28
2023/06/06 02:14:48;;;;;;;22.77;11.77;;;7.70;99.90;;;;;;5035309;28;20136;-27
2023/06/06 02:17:14;;;;;;;24.85;12.38;;;7.70;99.90;;;;;;5035130;28;20485;-27
2023/06/06 02:19:40;;;;;;;23.75;12.85;;;7.90;99.90;;;;;;5017813;28;20103;-28
2023/06/06 02:22:06;;;;;;;22.52;11.93;;;7.90;99.90;;;;;;5035364;28;20050;-27
2023/06/06 02:24:33;;;;;;;23.13;12.25;;;8.10;99.90;;;;;;5034125;28;20051;-27
2023/06/06 02:26:58;;;;;;;22.58;11.13;;;8.30;99.90;;;;;;5034938;28;20061;-27
2023/06/06 02:29:24;;;;;;;21.60;10.93;;;8.40;99.90;;;;;;5034807;28;20115;-28
2023/06/06 02:31:51;;;;;;;22.35;11.15;;;8.50;99.90;;;;;;5035170;28;20048;-27
2023/06/06 02:34:17;;;;;;;26.92;11.88;;;8.60;99.90;;;;;;5035128;28;20124;-27
2023/06/06 02:36:43;;;;;;;21.77;10.45;;;8.60;99.90;;;;;;5035576;28;20046;-27
2023/06/06 02:39:09;;;;;;;22.48;10.60;;;8.70;99.90;;;;;;5035283;28;20049;-27
2023/06/06 02:41:35;;;;;;;17.33;9.63;;;8.80;99.90;;;;;;5034925;28;20049;-27
2023/06/06 02:44:01;;;;;;;20.88;10.48;;;8.80;99.90;;;;;;5034936;28;20065;-27
2023/06/06 02:46:27;;;;;;;23.42;10.50;;;8.80;99.90;;;;;;5034744;28;20048;-28
2023/06/06 02:48:53;;;;;;;19.42;10.30;;;8.70;99.90;;;;;;5034515;28;20397;-27
2023/06/06 02:51:23;;;;;;;17.45;10.60;;;8.70;99.90;;;;;;5034102;28;20045;-28
2023/06/06 02:53:51;;;;;;;20.27;11.20;;;8.60;99.90;;;;;;5034750;28;20059;-27
2023/06/06 02:56:17;;;;;;;22.23;9.63;;;8.70;99.90;;;;;;5034730;28;20038;-27
2023/06/06 02:58:44;;;;;;;19.80;10.07;;;8.60;99.90;;;;;;5033419;28;20481;-27
2023/06/06 03:01:12;;;;;;;17.67;9.70;;;8.60;99.90;;;;;;5034578;28;20053;-27
2023/06/06 03:03:38;;;;;;;20.35;9.27;;;8.60;99.90;;;;;;5035088;28;20057;-27
2023/06/06 03:06:06;;;;;;;21.67;10.20;;;8.60;99.90;;;;;;5034753;28;20038;-28
2023/06/06 03:08:33;;;;;;;22.25;11.55;;;8.60;99.90;;;;;;5034525;28;20054;-27
2023/06/06 03:10:59;;;;;;;17.45;9.68;;;8.60;99.90;;;;;;5033456;28;20049;-27
2023/06/06 03:13:24;;;;;;;20.25;10.32;;;8.60;99.90;;;;;;5034367;28;20075;-27
2023/06/06 03:15:50;;;;;;;17.85;8.88;;;8.50;99.90;;;;;;5034181;28;20648;-27
2023/06/06 03:18:20;;;;;;;21.73;11.70;;;8.60;99.90;;;;;;5034107;28;20049;-27
2023/06/06 03:20:46;;;;;;;19.33;10.05;;;8.60;99.90;;;;;;5034054;28;20051;-28
2023/06/06 03:23:12;;;;;;;17.35;8.73;;;8.60;99.90;;;;;;5034071;28;20139;-28
2023/06/06 03:25:43;;;;;;;20.85;10.18;;;8.60;99.90;;;;;;5033986;28;20045;-27
2023/06/06 03:28:12;;;;;;;15.13;8.35;;;8.60;99.90;;;;;;5034237;28;20123;-29
2023/06/06 03:30:38;;;;;;;19.20;10.25;;;8.60;99.90;;;;;;5032800;28;20095;-27
2023/06/06 03:33:07;;;;;;;14.50;8.30;;;8.60;99.90;;;;;;5033883;28;20052;-27
2023/06/06 03:35:34;;;;;;;12.35;8.70;;;8.60;99.90;;;;;;5016584;28;20058;-27
2023/06/06 03:38:03;;;;;;;17.95;9.38;;;8.70;99.90;;;;;;5033854;28;20049;-27
2023/06/06 03:40:30;;;;;;;19.67;9.20;;;8.60;99.90;;;;;;5032664;28;20052;-28
2023/06/06 03:42:56;;;;;;;18.23;9.57;;;8.60;99.90;;;;;;5033831;28;20128;-27
2023/06/06 03:45:22;;;;;;;26.13;9.25;;;8.60;99.90;;;;;;5033708;28;20176;-27
2023/06/06 03:47:48;;;;;;;18.05;9.13;;;8.60;99.90;;;;;;5033826;28;20508;-27
2023/06/06 03:50:14;;;;;;;19.13;10.30;;;8.60;99.90;;;;;;5032561;28;20049;-27
2023/06/06 03:52:40;;;;;;;20.42;9.48;;;8.70;99.90;;;;;;5033686;28;20400;-27
2023/06/06 03:55:10;;;;;;;19.23;9.48;;;8.70;99.90;;;;;;5033661;28;20042;-27
2023/06/06 03:57:37;;;;;;;19.20;9.05;;;8.70;99.90;;;;;;5032537;28;20052;-27
2023/06/06 04:00:10;;;;;;;13.50;8.48;;;8.70;99.90;;;;;;5033846;28;20054;-27
2023/06/06 04:02:40;;;;;;;;;;;8.80;99.90;;;;;;5034611;28;20045;-27
2023/06/06 04:05:06;;;;;;;16.10;9.48;;;9.00;99.90;;;;;;5032290;28;19921;-27
2023/06/06 04:07:32;;;;;;;18.25;9.02;;;9.00;99.90;;;;;;5033425;28;20049;-27
2023/06/06 04:09:58;;;;;;;20.40;9.77;;;9.00;99.90;;;;;;5015945;28;20045;-27
2023/06/06 04:12:25;;;;;;;15.95;8.85;;;9.10;99.90;;;;;;5034032;28;20043;-27
2023/06/06 04:14:51;;;;;;;26.23;9.45;;;9.20;99.90;;;;;;5016330;28;20053;-27
2023/06/06 04:17:18;;;;;;;20.02;10.18;;;9.30;99.90;;;;;;5033380;28;20045;-27
2023/06/06 04:19:45;;;;;;;18.88;9.60;;;9.40;99.90;;;;;;5035833;28;20050;-27
2023/06/06 04:22:11;;;;;;;17.85;9.35;;;9.50;99.90;;;;;;5037974;28;20085;-28
2023/06/06 04:24:37;;;;;;;18.73;8.73;;;9.50;99.90;;;;;;5036442;28;20088;-28
2023/06/06 04:27:03;;;;;;;18.90;9.63;;;9.70;99.90;;;;;;5037270;28;20053;-28
2023/06/06 04:29:33;;;;;;;19.75;10.55;;;9.70;99.90;;;;;;5037604;28;20049;-28
2023/06/06 04:32:04;;;;;;;17.30;8.55;;;9.80;99.90;;;;;;5036627;28;20396;-28
2023/06/06 04:34:30;;;;;;;18.05;8.88;;;9.90;99.90;;;;;;5036753;28;20068;-28
2023/06/06 04:37:03;;;;;;;19.92;8.73;;;9.90;99.90;;;;;;5036099;28;20049;-28
2023/06/06 04:39:34;;;;;;;19.00;8.90;;;10.00;99.90;;;;;;5037834;28;20056;-27
2023/06/06 04:42:02;;;;;;;18.92;8.40;;;10.20;99.90;;;;;;5037274;28;20056;-27
2023/06/06 04:44:28;;;;;;;16.30;8.15;;;10.20;99.90;;;;;;5037497;28;20053;-28
2023/06/06 04:47:01;;;;;;;17.05;7.53;;;10.30;99.90;;;;;;5036883;28;20089;-27
2023/06/06 04:49:36;;;;;;;17.03;8.10;;;10.40;99.90;;;;;;5037186;28;20045;-28
2023/06/06 04:52:12;;;;;;;17.52;7.45;;;10.50;99.90;;;;;;5036248;28;20107;-28
2023/06/06 04:54:39;;;;;;;11.20;6.97;;;10.60;99.90;;;;;;5035848;28;20049;-28
2023/06/06 04:57:07;;;;;;;17.17;7.90;;;10.70;99.90;;;;;;5036886;28;20049;-27
2023/06/06 04:59:33;;;;;;;19.25;7.72;;;10.70;99.90;;;;;;5035680;28;20045;-28
2023/06/06 05:02:01;;;;;;;19.33;8.13;;;;;;;;;;5036758;28;20049;-26
2023/06/06 05:04:29;;;;;;;19.90;7.40;;;11.70;99.90;;;;;;5035566;28;20065;-28
2023/06/06 05:06:59;;;;;;;17.90;7.47;;;11.70;99.90;;;;;;5035382;28;20115;-28
2023/06/06 05:09:26;;;;;;;15.38;6.90;;;12.50;99.90;;;;;;5037340;28;20053;-28
2023/06/06 05:11:52;;;;;;;16.70;6.72;;;13.20;99.90;;;;;;5035369;28;20408;-28
2023/06/06 05:14:25;;;;;;;14.27;6.97;;;13.60;99.90;;;;;;5036536;28;20132;-28
2023/06/06 05:16:52;;;;;;;17.27;6.65;;;13.80;99.90;;;;;;5036232;28;20493;-28
2023/06/06 05:19:19;;;;;;;18.02;6.57;;;13.80;99.90;;;;;;5036465;28;20057;-28
2023/06/06 05:21:45;;;;;;;14.35;6.63;;;13.90;1.00;;;;;;5036032;28;20619;-27
2023/06/06 05:24:11;;;;;;;29.90;6.82;;;14.20;1.00;;;;;;5036361;28;20081;-28
2023/06/06 05:26:36;;;;;;;18.08;6.40;;;14.60;1.00;;;;;;5036055;28;20096;-28
2023/06/06 05:29:02;;;;;;;15.82;6.50;;;14.90;99.90;;;;;;5036275;28;20493;-28
2023/06/06 05:31:28;;;;;;;11.27;5.70;;;15.20;99.90;;;;;;5035875;28;20075;-28
2023/06/06 05:33:55;;;;;;;11.43;4.93;;;15.30;19.00;;;;;;5036422;28;20041;-28
2023/06/06 05:36:21;;;;;;;11.10;4.85;;;15.70;9.80;;;;;;5036643;28;20448;-28
2023/06/06 05:38:47;;;;;;;10.65;5.70;;;15.90;1.00;;;;;;5036102;28;20511;-28
2023/06/06 05:41:13;;;;;;;8.27;5.13;;;16.00;1.00;;;;;;5035965;28;20041;-28
2023/06/06 05:43:39;;;;;;;14.15;4.85;;;16.00;99.90;;;;;;5036218;28;20053;-29
2023/06/06 05:46:05;;;;;;;11.27;4.97;;;15.80;99.90;;;;;;5036417;28;20394;-28
2023/06/06 05:48:32;;;;;;;12.57;4.57;;;16.10;99.90;;;;;;5035917;28;20056;-28
2023/06/06 05:50:58;;;;;;;11.25;3.95;;;16.50;99.90;;;;;;5035137;28;20068;-28
2023/06/06 05:53:24;;;;;;;11.18;3.83;;;16.40;54.20;;;;;;5035876;28;20471;-28
2023/06/06 05:55:50;;;;;;;5.85;3.60;;;16.60;1.00;;;;;;5035815;28;20041;-28
2023/06/06 05:58:16;;;;;;;10.80;3.60;;;16.70;99.90;;;;;;5036553;28;20112;-28
2023/06/06 06:00:42;;;;;;;13.55;3.90;;;16.60;99.90;;;;;;5035716;28;20049;-28
2023/06/06 06:03:08;;;;;;;8.68;3.30;;;16.60;99.90;;;;;;5034474;28;20057;-28
2023/06/06 06:05:34;;;;;;;7.85;3.13;;;16.60;99.90;;;;;;5035511;28;20042;-28
2023/06/06 06:08:01;;;;;;;9.07;3.60;;;16.90;99.90;;;;;;5034879;28;20042;-28
2023/06/06 06:10:28;;;;;;;9.05;3.15;;;16.60;7.00;;;;;;5036319;28;20408;-27
2023/06/06 06:12:55;;;;;;;9.52;3.50;;;16.40;92.60;;;;;;5035509;28;20057;-28
2023/06/06 06:15:21;;;;;;;10.90;3.88;;;16.50;84.40;;;;;;5034783;28;20053;-30
2023/06/06 06:17:47;;;;;;;14.82;4.65;;;16.20;99.90;;;;;;5035379;28;20042;-28
2023/06/06 06:20:16;;;;;;;12.30;3.67;;;16.20;99.90;;;;;;5035247;28;20180;-28
2023/06/06 06:22:42;;;;;;;11.63;3.35;;;16.20;99.90;;;;;;5035297;28;20042;-28
2023/06/06 06:25:12;;;;;;;12.77;3.38;;;16.80;99.90;;;;;;5034894;28;20489;-29
2023/06/06 06:27:39;;;;;;;8.65;4.00;;;17.50;99.90;;;;;;5034629;28;20065;-28
2023/06/06 06:30:06;;;;;;;8.23;2.83;;;18.20;1.00;;;;;;5035095;28;20053;-28
2023/06/06 06:32:36;;;;;;;11.90;3.20;;;18.30;99.90;;;;;;5017910;28;20045;-28
2023/06/06 06:35:02;;;;;;;6.88;3.25;;;18.30;1.00;;;;;;5035016;28;20045;-28
2023/06/06 06:37:31;;;;;;;8.32;3.83;;;18.30;99.90;;;;;;5034990;28;20058;-28
2023/06/06 06:40:00;;;;;;;8.98;2.78;;;18.10;1.00;;;;;;5033715;28;20052;-28
2023/06/06 06:42:26;;;;;;;6.00;2.70;;;18.00;99.90;;;;;;5034163;28;20511;-28
2023/06/06 06:44:52;;;;;;;6.72;2.58;;;17.70;99.90;;;;;;5033742;28;20439;-29
2023/06/06 06:47:19;;;;;;;6.22;2.40;;;17.90;99.90;;;;;;5035098;28;20140;-28
2023/06/06 06:49:45;;;;;;;8.65;2.80;;;17.80;99.90;;;;;;5034737;28;20052;-28
2023/06/06 06:52:11;;;;;;;8.48;3.00;;;18.00;99.90;;;;;;5033675;28;20408;-28
2023/06/06 06:54:54;;;;;;;5.97;2.85;;;18.20;99.90;;;;;;5033660;28;20493;-28
2023/06/06 06:57:28;;;;;;;9.85;3.20;;;18.50;99.90;;;;;;5033610;28;20485;-28
2023/06/06 06:59:58;;;;;;;12.50;2.85;;;19.00;1.00;;;;;;5034583;28;20071;-28
2023/06/06 07:02:26;;;;;;;11.10;3.70;;;19.00;76.50;;;;;;5034549;28;20046;-30
2023/06/06 07:04:57;;;;;;;10.23;2.97;;;19.20;1.00;;;;;;5034493;28;20128;-28
2023/06/06 07:07:24;;;;;;;8.57;2.83;;;19.40;1.00;;;;;;5034456;28;20046;-28
2023/06/06 07:09:50;;;;;;;12.02;3.50;;;19.70;1.00;;;;;;5034630;28;20048;-29
2023/06/06 07:12:16;;;;;;;11.98;3.88;;;19.50;99.90;;;;;;5034696;28;20041;-28
2023/06/06 07:14:42;;;;;;;14.98;3.75;;;20.30;99.90;;;;;;5033365;28;20111;-28
2023/06/06 07:17:08;;;;;;;8.05;2.92;;;20.10;1.00;;;;;;5016897;28;20394;-28
2023/06/06 07:19:35;;;;;;;7.68;3.20;;;19.90;99.90;;;;;;5033804;28;20056;-28
2023/06/06 07:22:02;;;;;;;8.30;2.80;;;19.50;99.90;;;;;;5034460;28;20122;-28
2023/06/06 07:24:29;;;;;;;6.85;3.15;;;18.90;99.90;;;;;;5033637;28;20064;-28
2023/06/06 07:26:55;;;;;;;8.98;3.92;;;18.60;99.90;;;;;;5034001;28;20065;-29
2023/06/06 07:29:21;;;;;;;9.30;4.28;;;18.90;99.90;;;;;;5033092;28;20057;-28
2023/06/06 07:31:47;;;;;;;7.43;3.20;;;19.50;99.90;;;;;;5016336;28;20493;-27
2023/06/06 07:34:13;;;;;;;7.15;3.25;;;19.70;99.90;;;;;;5032811;28;20041;-28
2023/06/06 07:36:39;;;;;;;10.05;4.43;;;19.70;1.00;;;;;;5033757;28;20373;-28
2023/06/06 07:39:04;;;;;;;6.28;2.90;;;19.60;1.00;;;;;;5034129;28;20045;-28
2023/06/06 07:41:31;;;;;;;6.80;3.28;;;19.40;1.00;;;;;;5016466;28;20175;-27
2023/06/06 07:43:57;;;;;;;10.30;3.67;;;18.90;1.00;;;;;;5033645;28;20041;-28
2023/06/06 07:46:24;;;;;;;9.82;3.38;;;18.80;92.70;;;;;;5033750;28;20041;-28
2023/06/06 07:48:50;;;;;;;11.90;3.85;;;18.90;99.90;;;;;;5033706;28;20481;-28
2023/06/06 07:51:16;;;;;;;7.82;3.58;;;19.60;28.90;;;;;;5032444;28;20037;-28
2023/06/06 07:53:43;;;;;;;8.10;3.42;;;19.40;1.00;;;;;;5033650;28;20133;-28
2023/06/06 07:56:14;;;;;;;5.10;2.72;;;19.30;18.20;;;;;;5033548;28;20476;-28
2023/06/06 07:58:52;;;;;;;8.98;3.70;;;19.20;1.00;;;;;;5033672;28;20118;-29
2023/06/06 08:01:19;;;;;;;10.00;3.58;;;19.30;1.00;;;;;;5032399;28;20051;-28
2023/06/06 08:03:49;;;;;;;9.27;3.08;;;19.20;99.90;;;;;;5033854;28;20137;-28
2023/06/06 08:06:19;;;;;;;9.15;3.47;;;19.60;28.20;;;;;;5033517;28;20048;-28
2023/06/06 08:08:48;;;;;;;7.03;3.15;;;20.10;1.00;;;;;;5033544;28;20055;-29
2023/06/06 08:11:14;;;;;;;6.68;3.38;;;19.90;99.90;;;;;;5033463;28;20044;-28
2023/06/06 08:13:41;;;;;;;5.55;3.00;;;19.80;99.90;;;;;;5033452;28;20053;-29
2023/06/06 08:16:07;;;;;;;8.05;3.45;;;19.30;99.90;;;;;;5033461;28;20049;-28
2023/06/06 08:18:32;;;;;;;7.68;3.00;;;19.70;1.00;;;;;;5033975;28;20049;-28
2023/06/06 08:20:58;;;;;;;8.30;3.40;;;20.10;1.00;;;;;;5033312;28;20052;-27
2023/06/06 08:23:24;;;;;;;9.38;3.53;;;20.40;99.90;;;;;;5016748;28;20053;-28
2023/06/06 08:25:55;;;;;;;7.35;3.88;;;20.00;99.90;;;;;;5033841;28;20045;-29
2023/06/06 08:28:24;;;;;;;8.73;4.70;;;19.50;1.00;;;;;;5031976;28;20128;-28
2023/06/06 08:30:51;;;;;;;7.75;3.72;;;19.20;99.90;;;;;;4999359;28;20042;-28
2023/06/06 08:33:18;;;;;;;6.53;3.50;;;19.10;1.00;;;;;;5033247;28;20102;-28
2023/06/06 08:35:44;;;;;;;7.38;3.85;;;19.10;1.00;;;;;;5032145;28;20132;-29
2023/06/06 08:38:11;;;;;;;8.10;3.58;;;19.30;1.00;;;;;;5033056;28;20128;-28
2023/06/06 08:40:37;;;;;;;6.95;3.33;;;19.70;1.00;;;;;;5033311;28;20501;-28
2023/06/06 08:43:04;;;;;;;9.70;4.60;;;19.40;99.90;;;;;;5033325;28;20045;-28
2023/06/06 08:45:31;;;;;;;9.73;4.00;;;19.70;1.00;;;;;;5032025;28;20049;-28
2023/06/06 08:47:58;;;;;;;8.55;3.58;;;19.90;99.90;;;;;;5033145;28;20057;-28
2023/06/06 08:50:26;;;;;;;7.28;3.20;;;20.10;99.90;;;;;;5031891;28;20050;-28
2023/06/06 08:52:52;;;;;;;7.38;3.88;;;20.30;99.90;;;;;;5032060;28;20083;-28
2023/06/06 08:55:19;;;;;;;6.80;2.42;;;20.40;99.90;;;;;;5033070;28;20041;-28
2023/06/06 08:57:50;;;;;;;11.70;3.33;;;20.60;99.90;;;;;;5033024;28;20111;-28
2023/06/06 09:00:21;;;;;;;6.97;2.97;;;20.80;99.90;;;;;;5033392;28;20085;-28
2023/06/06 09:02:47;;;;;;;6.20;2.83;;;20.70;99.90;;;;;;5031592;28;20552;-28
2023/06/06 09:05:17;;;;;;;6.03;3.70;;;20.80;99.90;;;;;;5034399;28;20038;-30
2023/06/06 09:07:43;;;;;;;6.95;3.50;;;20.50;95.10;;;;;;5036658;28;20090;-28
2023/06/06 09:10:09;;;;;;;11.38;4.43;;;20.30;99.90;;;;;;5035418;28;20451;-28
2023/06/06 09:12:42;;;;;;;9.23;3.30;;;20.00;99.90;;;;;;5035640;28;20045;-28
2023/06/06 09:15:09;;;;;;;7.53;3.50;;;20.30;99.90;;;;;;5035982;28;20098;-28
2023/06/06 09:17:41;;;;;;;7.30;3.50;;;20.90;99.90;;;;;;5035923;28;20096;-28
2023/06/06 09:20:12;;;;;;;8.27;3.90;;;21.10;1.00;;;;;;5036429;28;20389;-29
2023/06/06 09:22:42;;;;;;;7.90;3.08;;;21.10;1.00;;;;;;5037252;28;20068;-28
2023/06/06 09:25:19;;;;;;;6.97;3.47;;;21.50;1.00;;;;;;5036292;28;20045;-28
2023/06/06 09:27:46;;;;;;;7.65;3.80;;;21.50;1.00;;;;;;5035771;28;20524;-28
2023/06/06 09:30:23;;;;;;;6.03;3.42;;;21.50;1.00;;;;;;5036238;28;20053;-29
2023/06/06 09:33:00;;;;;;;7.35;3.78;;;21.50;1.00;;;;;;5035103;28;20123;-28
2023/06/06 09:35:41;;;;;;;8.77;3.33;;;21.70;1.00;;;;;;5035705;28;20124;-29
2023/06/06 09:38:08;;;;;;;8.55;4.18;;;22.30;1.00;;;;;;5036175;28;20053;-28
2023/06/06 09:40:46;;;;;;;6.05;4.10;;;22.40;1.00;;;;;;5036106;28;20045;-28
2023/06/06 09:43:12;;;;;;;6.88;3.80;;;22.10;99.90;;;;;;5036094;28;20053;-28
2023/06/06 09:45:52;;;;;;;9.18;3.88;;;21.90;1.00;;;;;;5034802;28;20037;-28
2023/06/06 09:48:27;;;;;;;6.85;3.83;;;21.70;99.90;;;;;;5035363;28;20045;-28
2023/06/06 09:50:53;;;;;;;7.53;3.50;;;21.00;99.90;;;;;;5018919;28;20488;-28
2023/06/06 09:53:26;;;;;;;8.27;4.63;;;20.70;1.00;;;;;;5035886;28;20046;-28
2023/06/06 09:55:55;;;;;;;6.00;4.10;;;21.00;1.00;;;;;;5019048;28;20045;-28
2023/06/06 09:58:22;;;;;;;7.20;4.90;;;21.10;1.00;;;;;;5036015;28;20061;-28
2023/06/06 10:00:48;;;;;;;9.90;4.22;;;21.30;1.00;;;;;;5035834;28;20041;-29
2023/06/06 10:03:22;;;;;;;12.30;3.80;;;21.30;1.00;;;;;;5018414;28;20124;-29
2023/06/06 10:05:49;;;;;;;9.20;4.10;;;21.70;1.00;;;;;;5036171;28;20133;-28
2023/06/06 10:08:17;;;;;;;9.43;4.10;;;22.00;1.00;;;;;;5035554;28;20481;-28
2023/06/06 10:10:46;;;;;;;7.35;4.10;;;21.90;1.00;;;;;;5034032;28;20459;-28
2023/06/06 10:13:23;;;;;;;11.52;4.05;;;21.70;99.90;;;;;;5034101;28;20515;-28
2023/06/06 10:15:52;;;;;;;6.28;3.45;;;21.60;99.90;;;;;;5034910;28;20468;-29
2023/06/06 10:18:19;;;;;;;8.85;3.80;;;21.70;1.00;;;;;;5033610;28;20099;-29
2023/06/06 10:20:44;;;;;;;7.65;3.72;;;21.70;99.90;;;;;;5034411;28;20121;-29
2023/06/06 10:23:10;;;;;;;6.82;3.20;;;21.90;99.90;;;;;;5035577;28;20489;-30
2023/06/06 10:25:37;;;;;;;5.53;3.75;;;21.90;1.00;;;;;;5035213;28;20462;-29
2023/06/06 10:28:26;;;;;;;5.88;3.75;;;22.10;99.90;;;;;;5034901;28;20079;-29
2023/06/06 10:31:11;;;;;;;7.15;3.55;;;22.00;99.90;;;;;;5035457;28;20420;-29
2023/06/06 10:33:51;;;;;;;8.85;4.10;;;22.10;99.90;;;;;;5034130;28;20049;-29
2023/06/06 10:36:18;;;;;;;8.18;4.13;;;22.00;99.90;;;;;;5035117;28;20056;-29
2023/06/06 10:39:18;;;;;;;8.57;4.55;;;22.10;99.90;;;;;;5035600;28;20052;-28
2023/06/06 10:41:53;;;;;;;9.57;4.80;;;22.20;99.90;;;;;;5034948;28;20049;-29
2023/06/06 10:44:26;;;;;;;9.73;4.55;;;21.90;99.90;;;;;;5034997;28;20041;-29
2023/06/06 10:47:21;;;;;;;10.27;4.28;;;22.10;99.90;;;;;;5034821;28;20052;-28
2023/06/06 10:50:11;;;;;;;8.57;3.50;;;22.00;99.90;;;;;;5034881;28;20057;-29
2023/06/06 10:52:52;;;;;;;16.38;3.78;;;22.10;99.90;;;;;;5034698;28;20452;-28
2023/06/06 10:55:20;;;;;;;9.63;4.40;;;22.00;99.90;;;;;;5035576;28;20064;-30
2023/06/06 10:58:16;;;;;;;8.15;3.20;;;22.20;99.90;;;;;;5034645;28;20045;-29
2023/06/06 11:00:43;;;;;;;7.78;3.38;;;22.50;99.90;;;;;;5017935;28;20056;-28
2023/06/06 11:03:12;;;;;;;5.85;3.42;;;22.70;99.90;;;;;;5034459;28;20091;-28
2023/06/06 11:05:59;;;;;;;8.05;3.58;;;22.80;99.90;;;;;;5033209;28;20052;-28
2023/06/06 11:08:41;;;;;;;11.02;3.67;;;23.00;99.90;;;;;;5034399;28;20045;-28
2023/06/06 11:11:19;;;;;;;9.47;3.73;;;22.70;99.90;;;;;;5034195;28;20444;-29
2023/06/06 11:13:51;;;;;;;8.68;3.90;;;22.50;99.90;;;;;;5033107;28;20132;-28
2023/06/06 11:16:28;;;;;;;11.02;3.65;;;22.50;99.90;;;;;;5034314;28;20061;-28
2023/06/06 11:19:01;;;;;;;10.75;3.83;;;22.60;99.90;;;;;;5017001;28;20052;-29
2023/06/06 11:21:27;;;;;;;9.35;3.85;;;22.70;99.90;;;;;;5034131;28;20500;-29
2023/06/06 11:23:54;;;;;;;8.10;4.20;;;22.60;99.90;;;;;;5034160;28;20049;-29
2023/06/06 11:26:21;;;;;;;9.23;4.32;;;22.70;99.90;;;;;;5034136;28;20041;-30
2023/06/06 11:28:46;;;;;;;6.95;4.07;;;22.70;99.90;;;;;;5034253;28;20065;-29
2023/06/06 11:31:16;;;;;;;8.35;3.95;;;22.70;99.90;;;;;;5034067;28;20114;-28
2023/06/06 11:33:43;;;;;;;12.98;4.45;;;22.50;99.90;;;;;;5034071;28;20053;-29
2023/06/06 11:36:09;;;;;;;8.82;4.15;;;22.60;99.90;;;;;;5034770;28;20496;-29
2023/06/06 11:38:35;;;;;;;10.38;3.85;;;23.10;99.90;;;;;;5034179;28;20461;-29
2023/06/06 11:41:04;;;;;;;9.65;4.05;;;23.40;99.90;;;;;;5034472;28;20091;-30
2023/06/06 11:43:30;;;;;;;8.80;3.88;;;23.10;99.90;;;;;;5032742;28;20049;-29
2023/06/06 11:46:06;;;;;;;9.95;4.05;;;22.90;99.90;;;;;;5034478;28;20133;-29
2023/06/06 11:48:33;;;;;;;10.23;3.53;;;22.50;99.90;;;;;;5032782;28;20089;-29
2023/06/06 11:51:13;;;;;;;12.73;4.20;;;22.20;99.90;;;;;;5033723;28;20049;-30
2023/06/06 11:53:39;;;;;;;9.48;3.65;;;22.50;99.90;;;;;;5034601;28;20041;-29
2023/06/06 11:56:06;;;;;;;10.35;4.28;;;22.30;99.90;;;;;;5033689;28;20172;-28
2023/06/06 11:58:34;;;;;;;8.95;3.95;;;22.70;99.90;;;;;;5032473;28;20045;-30
2023/06/06 12:01:03;;;;;;;10.70;4.07;;;22.90;99.90;;;;;;5032746;28;20049;-29
2023/06/06 12:03:31;;;;;;;9.15;4.00;;;22.70;99.90;;;;;;5033588;28;20124;-29
2023/06/06 12:06:03;;;;;;;8.35;4.00;;;22.70;99.90;;;;;;5033520;28;20048;-28
2023/06/06 12:08:33;;;;;;;8.57;3.50;;;22.70;99.90;;;;;;5033594;28;20053;-28
2023/06/06 12:11:26;;;;;;;10.00;3.70;;;22.70;99.90;;;;;;5032845;28;20050;-29
2023/06/06 12:13:53;;;;;;;10.00;4.10;;;22.80;99.90;;;;;;5033488;28;20404;-29
2023/06/06 12:16:26;;;;;;;11.25;4.22;;;22.90;99.90;;;;;;5033460;28;20092;-30
2023/06/06 12:18:52;;;;;;;12.57;3.63;;;23.00;99.90;;;;;;5034149;28;20049;-29
2023/06/06 12:21:18;;;;;;;10.00;3.42;;;22.90;99.90;;;;;;5033564;28;20037;-28
2023/06/06 12:23:44;;;;;;;9.65;3.22;;;23.10;99.90;;;;;;5033254;28;20139;-29
2023/06/06 12:26:11;;;;;;;8.80;3.45;;;22.80;99.90;;;;;;5033278;28;20049;-29
2023/06/06 12:28:59;;;;;;;9.77;3.22;;;22.90;99.90;;;;;;5032210;28;20088;-29
2023/06/06 12:31:27;;;;;;;7.13;3.00;;;22.90;99.90;;;;;;5034155;28;20128;-29
2023/06/06 12:33:56;;;;;;;7.63;3.63;;;22.70;99.90;;;;;;5032311;28;20087;-30
2023/06/06 12:36:25;;;;;;;7.65;3.78;;;22.00;99.90;;;;;;5032823;28;20148;-29
2023/06/06 12:39:01;;;;;;;9.48;3.40;;;21.90;99.90;;;;;;5033264;28;20045;-29
2023/06/06 12:41:39;;;;;;;8.70;3.33;;;21.60;99.90;;;;;;5035568;28;20087;-30
2023/06/06 12:44:16;;;;;;;5.18;2.70;;;21.90;99.90;;;;;;5037140;28;20053;-28
2023/06/06 12:46:43;;;;;;;8.40;3.30;;;21.90;99.90;;;;;;5036789;28;20053;-29
2023/06/06 12:49:10;;;;;;;10.40;3.20;;;21.40;99.90;;;;;;5036075;28;20136;-29
2023/06/06 12:51:39;;;;;;;8.80;2.92;;;21.30;99.90;;;;;;5037093;28;20049;-29
2023/06/06 12:54:10;;;;;;;10.93;3.05;;;21.40;99.90;;;;;;5035826;28;20131;-28